Time;durP1;ratioP1;P1;durP2;ratioP2;P2;SDS_P1;SDS_P2;PMS_P1;PMS_P2;Temp;Humidity;BMP_temperature;BMP_pressure;BME280_temperature;BME280_humidity;BME280_pressure;Samples;Min_cycle;Max_cycle;Signal;HPM_P1;HPM_P2
2023/07/12 00:01:17;;;;;;;7.65;2.92;;;;;;;17.63;100.00;92943.31;2591269;22;19999;-80
2023/07/12 00:02:37;;;;;;;4.75;2.97;;;;;;;17.51;100.00;92957.84;2578296;23;20366;-78
2023/07/12 00:04:12;;;;;;;5.45;2.80;;;;;;;17.44;100.00;92969.03;2572815;23;20008;-81
2023/07/12 00:05:32;;;;;;;4.03;2.65;;;;;;;17.41;100.00;92931.38;2589402;22;19996;-80
2023/07/12 00:06:53;;;;;;;6.78;2.85;;;;;;;17.36;100.00;92946.28;2590649;22;20004;-82
2023/07/12 00:08:22;;;;;;;5.63;2.88;;;;;;;17.69;100.00;92964.31;2577773;23;20004;-83
2023/07/12 00:09:46;;;;;;;7.78;3.00;;;;;;;17.63;100.00;92956.09;2587444;22;20068;-82
2023/07/12 00:11:17;;;;;;;6.38;3.53;;;;;;;17.54;100.00;92921.03;2577475;23;20038;-81
2023/07/12 00:12:36;;;;;;;6.70;2.80;;;;;;;17.35;100.00;92871.84;2575296;23;20079;-80
2023/07/12 00:13:57;;;;;;;5.22;2.88;;;;;;;17.41;100.00;92853.75;2555937;23;20012;-81
2023/07/12 00:15:24;;;;;;;8.85;3.38;;;;;;;17.36;100.00;92841.66;2581721;22;20010;-80
2023/07/12 00:16:55;;;;;;;5.68;2.85;;;;;;;17.36;100.00;92824.69;2590692;22;20513;-81
2023/07/12 00:18:20;;;;;;;4.80;3.20;;;;;;;17.27;100.00;92809.31;2577066;23;20057;-80
2023/07/12 00:19:47;;;;;;;5.90;3.08;;;;;;;17.32;100.00;92824.13;2587307;22;20008;-81
2023/07/12 00:21:22;;;;;;;7.80;3.28;;;;;;;17.26;100.00;92837.56;2590312;22;19999;-80
2023/07/12 00:22:52;;;;;;;5.72;2.90;;;;;;;17.15;100.00;92842.00;2577061;23;20134;-81
2023/07/12 00:24:34;;;;;;;5.22;2.97;;;;;;;17.19;100.00;92854.13;2588313;22;20086;-82
2023/07/12 00:26:20;;;;;;;3.83;2.65;;;;;;;17.23;100.00;92854.69;2591033;22;20068;-81
2023/07/12 00:29:57;;;;;;;8.20;2.80;;;;;;;17.31;100.00;92863.16;2565016;23;20028;-83
2023/07/12 00:31:20;;;;;;;5.90;3.35;;;;;;;17.18;100.00;92857.28;2565606;23;20012;-80
2023/07/12 00:32:41;;;;;;;6.68;2.83;;;;;;;17.13;100.00;92857.94;2564890;23;20070;-81
2023/07/12 00:34:02;;;;;;;4.75;2.40;;;;;;;17.13;100.00;92855.97;2565489;23;20024;-80
2023/07/12 00:35:26;;;;;;;7.57;2.88;;;;;;;17.15;100.00;92858.22;2574348;23;20426;-82
2023/07/12 00:36:46;;;;;;;12.52;2.90;;;;;;;17.03;100.00;92866.13;2573752;23;20484;-81
2023/07/12 00:38:15;;;;;;;6.57;2.90;;;;;;;17.00;100.00;92874.41;2581511;22;20027;-80
2023/07/12 00:39:36;;;;;;;5.65;2.95;;;;;;;17.15;100.00;92877.13;2591666;22;20007;-83
2023/07/12 00:41:19;;;;;;;4.97;3.00;;;;;;;17.12;100.00;92870.69;2578462;23;20091;-83
2023/07/12 00:42:45;;;;;;;5.82;3.03;;;;;;;17.09;100.00;92866.97;2577893;23;20089;-81
2023/07/12 00:44:16;;;;;;;5.88;2.78;;;;;;;17.10;100.00;92865.75;2570866;23;20010;-81
2023/07/12 00:45:37;;;;;;;7.55;2.75;;;;;;;17.02;100.00;92864.59;2588326;22;20008;-84
2023/07/12 00:46:58;;;;;;;4.32;2.30;;;;;;;17.25;100.00;92860.38;2576218;23;20008;-80
2023/07/12 00:48:19;;;;;;;6.65;2.55;;;;;;;17.32;100.00;92857.28;2573112;23;20136;-80
2023/07/12 00:49:40;;;;;;;12.80;2.80;;;;;;;17.38;100.00;92860.09;2586490;22;20004;-83
2023/07/12 00:51:21;;;;;;;10.02;2.60;;;;;;;17.05;100.00;92857.53;2577025;23;20110;-80
2023/07/12 00:52:41;;;;;;;3.80;2.60;;;;;;;17.06;100.00;92856.34;2590633;22;20004;-81
2023/07/12 00:54:14;;;;;;;5.18;2.10;;;;;;;17.04;100.00;92854.09;2577000;23;20019;-80
2023/07/12 00:55:56;;;;;;;4.07;2.50;;;;;;;16.86;100.00;92859.66;2588779;22;20013;-80
2023/07/12 00:57:17;;;;;;;5.10;2.42;;;;;;;16.93;100.00;92850.44;2589935;22;20038;-84
2023/07/12 00:58:42;;;;;;;4.97;2.22;;;;;;;17.02;100.00;92845.69;2577712;23;20032;-79
2023/07/12 01:00:10;;;;;;;4.90;2.50;;;;;;;16.84;100.00;92845.84;2586734;22;20490;-80
2023/07/12 01:01:34;;;;;;;2.80;2.40;;;;;;;16.97;100.00;92843.66;2590263;22;20406;-82
2023/07/12 01:02:55;;;;;;;6.38;2.65;;;;;;;16.84;100.00;92841.19;2576975;23;20075;-83
2023/07/12 01:04:21;;;;;;;5.18;2.20;;;;;;;16.90;100.00;92835.16;2586471;22;20476;-81
2023/07/12 01:05:44;;;;;;;6.25;2.60;;;;;;;16.84;100.00;92840.47;2578713;23;20280;-82
2023/07/12 01:07:05;;;;;;;7.13;2.47;;;;;;;16.72;100.00;92836.78;2589863;22;20061;-80
2023/07/12 01:08:27;;;;;;;5.65;2.65;;;;;;;16.75;100.00;92827.03;2581690;23;20008;-80
2023/07/12 01:09:48;;;;;;;5.53;2.40;;;;;;;16.67;100.00;92829.31;2590485;22;20055;-82
2023/07/12 01:11:12;;;;;;;6.60;2.72;;;;;;;16.67;100.00;92826.59;2580380;23;20469;-82
2023/07/12 01:12:33;;;;;;;6.65;2.83;;;;;;;16.63;100.00;92824.09;2576533;23;20006;-80
2023/07/12 01:13:54;;;;;;;4.72;2.70;;;;;;;16.72;100.00;92828.69;2587917;22;20008;-84
2023/07/12 01:15:15;;;;;;;4.18;2.45;;;;;;;16.97;100.00;92816.66;2578420;23;20278;-81
2023/07/12 01:16:35;;;;;;;6.57;2.70;;;;;;;16.81;100.00;92808.97;2586389;22;20125;-83
2023/07/12 01:17:57;;;;;;;5.35;2.63;;;;;;;16.77;100.00;92805.72;2590865;22;20082;-83
2023/07/12 01:19:17;;;;;;;6.22;2.47;;;;;;;16.84;100.00;92816.16;2577287;23;20073;-84
2023/07/12 01:20:40;;;;;;;4.78;2.70;;;;;;;16.75;100.00;92813.53;2586712;22;20307;-82
2023/07/12 01:22:02;;;;;;;6.20;2.25;;;;;;;16.73;100.00;92807.88;2577569;23;20082;-79
2023/07/12 01:23:22;;;;;;;5.30;2.75;;;;;;;16.81;100.00;92806.28;2586826;22;20074;-84
2023/07/12 01:24:43;;;;;;;3.83;2.33;;;;;;;16.90;100.00;92798.13;2590002;22;20003;-85
2023/07/12 01:26:31;;;;;;;9.15;2.60;;;;;;;17.00;100.00;92802.22;2577303;23;20011;-84
2023/07/12 01:27:52;;;;;;;11.85;3.20;;;;;;;16.95;100.00;92799.44;2577244;23;20387;-84
2023/07/12 01:29:13;;;;;;;4.20;2.60;;;;;;;17.01;100.00;92805.66;2578649;22;20020;-80
2023/07/12 01:30:35;;;;;;;4.13;2.50;;;;;;;16.76;100.00;92801.53;2590208;22;20490;-82
2023/07/12 01:31:55;;;;;;;10.02;2.92;;;;;;;16.76;100.00;92796.88;2585941;22;20042;-82
2023/07/12 01:33:18;;;;;;;4.00;2.40;;;;;;;16.74;100.00;92803.97;2585381;22;20007;-82
2023/07/12 01:34:45;;;;;;;6.82;2.95;;;;;;;16.66;100.00;92795.44;2589667;22;20077;-81
2023/07/12 01:36:13;;;;;;;10.25;2.80;;;;;;;16.77;100.00;92794.91;2591442;22;20507;-80
2023/07/12 01:37:40;;;;;;;5.30;2.72;;;;;;;16.55;100.00;92790.59;2590388;22;20449;-81
2023/07/12 01:39:10;;;;;;;6.53;2.40;;;;;;;16.67;100.00;92788.09;2587949;22;20004;-82
2023/07/12 01:40:33;;;;;;;4.65;2.55;;;;;;;16.68;100.00;92794.97;2591586;22;20423;-83
2023/07/12 01:41:53;;;;;;;5.97;2.78;;;;;;;16.77;100.00;92789.53;2592899;22;20026;-82
2023/07/12 01:43:14;;;;;;;5.75;3.00;;;;;;;16.61;100.00;92782.59;2592879;22;20474;-78
2023/07/12 01:44:41;;;;;;;6.53;2.58;;;;;;;16.67;100.00;92783.44;2592084;22;20303;-83
2023/07/12 01:46:10;;;;;;;5.28;2.47;;;;;;;16.50;100.00;92775.00;2588898;22;20221;-81
2023/07/12 01:47:38;;;;;;;6.38;2.90;;;;;;;16.49;100.00;92783.56;2593659;22;20019;-79
2023/07/12 01:49:05;;;;;;;5.10;2.67;;;;;;;16.49;100.00;92789.72;2599434;22;20034;-83
2023/07/12 01:50:41;;;;;;;6.32;2.75;;;;;;;16.37;100.00;92785.31;2592647;22;20051;-83
2023/07/12 01:52:07;;;;;;;4.53;2.30;;;;;;;16.42;100.00;92782.00;2583754;23;20430;-80
2023/07/12 01:53:33;;;;;;;6.72;2.67;;;;;;;16.34;100.00;92776.19;2584138;23;20004;-80
2023/07/12 01:54:57;;;;;;;4.28;2.67;;;;;;;16.30;100.00;92789.09;2577467;23;20004;-80
2023/07/12 01:56:22;;;;;;;8.60;2.83;;;;;;;16.32;100.00;92791.34;2573941;23;20004;-80
2023/07/12 01:57:50;;;;;;;3.88;2.85;;;;;;;16.21;100.00;92801.91;2578212;23;20212;-81
2023/07/12 01:59:17;;;;;;;3.80;2.60;;;;;;;16.33;100.00;92795.53;2578581;23;20004;-80
2023/07/12 02:00:42;;;;;;;18.95;3.08;;;;;;;16.33;100.00;92793.59;2578018;23;20004;-82
2023/07/12 02:04:19;;;;;;;6.22;3.28;;;;;;;16.35;100.00;92783.06;2577582;23;20083;-83
2023/07/12 02:05:40;;;;;;;4.10;2.40;;;;;;;16.30;100.00;92775.63;2577240;23;20004;-81
2023/07/12 02:07:03;;;;;;;3.70;2.40;;;;;;;16.34;100.00;92775.47;2572500;23;20004;-83
2023/07/12 02:08:24;;;;;;;5.07;2.60;;;;;;;16.30;100.00;92782.97;2577063;23;20008;-82
2023/07/12 02:10:12;;;;;;;7.22;3.10;;;;;;;16.20;100.00;92786.91;2574128;23;20004;-82
2023/07/12 02:12:22;;;;;;;6.10;2.97;;;;;;;16.23;100.00;92789.44;2577199;23;20004;-82
2023/07/12 02:13:43;;;;;;;4.60;2.50;;;;;;;16.28;100.00;92788.81;2578031;23;20198;-80
2023/07/12 02:15:04;;;;;;;4.78;2.47;;;;;;;16.32;100.00;92785.94;2578196;23;20061;-83
2023/07/12 02:18:40;;;;;;;5.35;2.33;;;;;;;16.31;100.00;92793.28;2577512;23;20008;-82
2023/07/12 02:20:02;;;;;;;6.03;2.70;;;;;;;16.33;100.00;92793.59;2577045;23;20548;-80
2023/07/12 02:21:23;;;;;;;8.15;3.00;;;;;;;16.24;100.00;92795.59;2572984;23;20014;-80
2023/07/12 02:22:45;;;;;;;7.47;2.63;;;;;;;16.30;100.00;92791.81;2572616;23;20011;-82
2023/07/12 02:24:06;;;;;;;4.72;2.60;;;;;;;16.31;100.00;92781.75;2572534;23;20533;-81
2023/07/12 02:26:23;;;;;;;5.50;2.85;;;;;;;16.32;100.00;92777.84;2577405;23;20058;-85
2023/07/12 02:27:44;;;;;;;9.25;2.50;;;;;;;16.33;100.00;92782.03;2577662;23;20469;-85
2023/07/12 02:29:05;;;;;;;4.97;2.60;;;;;;;16.27;100.00;92781.94;2576162;22;20060;-83
2023/07/12 02:30:42;;;;;;;5.85;2.90;;;;;;;16.23;100.00;92800.22;2572427;23;20011;-84
2023/07/12 02:32:04;;;;;;;3.88;2.90;;;;;;;16.08;100.00;92819.06;2577721;23;20004;-82
2023/07/12 02:36:11;;;;;;;5.72;2.70;;;;;;;16.39;100.00;92795.66;2579511;23;20004;-81
2023/07/12 02:37:32;;;;;;;8.23;2.70;;;;;;;16.36;100.00;92797.31;2577729;23;20011;-83
2023/07/12 02:38:52;;;;;;;6.20;2.92;;;;;;;16.28;100.00;92796.91;2573275;23;20004;-82
2023/07/12 02:41:08;;;;;;;4.50;2.63;;;;;;;16.17;100.00;92795.94;2579804;23;20145;-82
2023/07/12 02:42:31;;;;;;;8.75;3.22;;;;;;;16.20;100.00;92801.16;2581553;23;20007;-80
2023/07/12 02:43:52;;;;;;;5.45;2.90;;;;;;;16.15;100.00;92791.00;2574950;23;20034;-84
2023/07/12 02:45:13;;;;;;;5.65;2.83;;;;;;;16.06;100.00;92802.56;2561329;23;20151;-80
2023/07/12 02:46:43;;;;;;;6.75;2.97;;;;;;;16.09;100.00;92803.63;2564462;23;20325;-85
2023/07/12 02:48:04;;;;;;;3.53;2.80;;;;;;;16.14;100.00;92802.25;2574274;23;20019;-81
2023/07/12 02:49:40;;;;;;;4.53;2.90;;;;;;;16.16;100.00;92797.91;2572589;23;20004;-81
2023/07/12 02:51:01;;;;;;;5.80;3.13;;;;;;;16.22;100.00;92789.91;2575943;23;20079;-80
2023/07/12 02:52:21;;;;;;;9.27;3.40;;;;;;;16.22;100.00;92792.59;2572360;23;20031;-82
2023/07/12 02:53:41;;;;;;;5.55;3.05;;;;;;;16.19;100.00;92780.03;2577140;23;20006;-82
2023/07/12 02:55:03;;;;;;;5.07;2.92;;;;;;;16.19;100.00;92777.34;2572251;23;20391;-84
2023/07/12 02:56:23;;;;;;;5.47;3.00;;;;;;;16.18;100.00;92768.50;2571845;23;20014;-81
2023/07/12 02:57:43;;;;;;;6.00;3.47;;;;;;;16.15;100.00;92764.03;2576978;23;20522;-83
2023/07/12 02:59:04;;;;;;;6.50;3.05;;;;;;;16.14;100.00;92757.16;2576546;23;20040;-84
2023/07/12 03:00:25;;;;;;;6.50;2.88;;;;;;;16.11;100.00;92782.31;2572462;23;20008;-85
2023/07/12 03:01:49;;;;;;;5.40;3.10;;;;;;;16.17;100.00;92782.47;2577667;23;20099;-82
2023/07/12 03:03:09;;;;;;;8.65;3.17;;;;;;;16.13;100.00;92792.66;2578848;23;20496;-80
2023/07/12 03:04:30;;;;;;;10.73;3.15;;;;;;;16.09;100.00;92795.53;2582618;23;20031;-79
2023/07/12 03:05:50;;;;;;;6.65;3.10;;;;;;;16.15;100.00;92788.28;2589002;23;20323;-82
2023/07/12 03:07:11;;;;;;;10.43;3.88;;;;;;;16.08;100.00;92786.69;2582683;23;20279;-82
2023/07/12 03:08:32;;;;;;;4.90;2.55;;;;;;;16.17;100.00;92795.94;2579323;23;20083;-82
2023/07/12 03:09:56;;;;;;;4.57;3.15;;;;;;;16.13;100.00;92796.09;2584254;23;20004;-82
2023/07/12 03:11:16;;;;;;;7.40;3.17;;;;;;;16.21;100.00;92804.59;2582791;23;20015;-82
2023/07/12 03:12:37;;;;;;;5.82;3.00;;;;;;;16.17;100.00;92812.13;2581949;23;20019;-84
2023/07/12 03:13:58;;;;;;;6.75;3.20;;;;;;;16.14;100.00;92819.16;2580351;23;20024;-82
2023/07/12 03:15:19;;;;;;;4.80;3.08;;;;;;;16.12;100.00;92818.91;2579297;22;20717;-81
2023/07/12 03:16:41;;;;;;;7.15;3.40;;;;;;;16.10;100.00;92818.59;2577913;23;20000;-82
2023/07/12 03:18:27;;;;;;;5.75;3.53;;;;;;;16.15;100.00;92809.88;2574476;23;20031;-83
2023/07/12 03:19:53;;;;;;;6.38;3.17;;;;;;;16.14;100.00;92813.03;2578035;23;20006;-79
2023/07/12 03:21:17;;;;;;;5.53;2.97;;;;;;;16.25;100.00;92819.41;2575237;23;20047;-79
2023/07/12 03:22:44;;;;;;;6.72;3.15;;;;;;;16.16;100.00;92829.50;2578860;23;20087;-85
2023/07/12 03:24:12;;;;;;;8.07;3.40;;;;;;;16.16;100.00;92824.13;2578881;23;20084;-82
2023/07/12 03:25:40;;;;;;;6.78;3.25;;;;;;;16.27;100.00;92827.03;2578942;23;20008;-81
2023/07/12 03:27:07;;;;;;;5.00;3.20;;;;;;;16.16;100.00;92830.25;2578274;23;20394;-82
2023/07/12 03:28:35;;;;;;;16.20;4.45;;;;;;;16.20;100.00;92817.34;2575260;23;20012;-84
2023/07/12 03:29:58;;;;;;;11.80;3.60;;;;;;;16.16;100.00;92807.94;2578017;23;20059;-79
2023/07/12 03:31:35;;;;;;;5.53;3.50;;;;;;;16.03;100.00;92814.28;2578730;23;20046;-79
2023/07/12 03:33:05;;;;;;;3.53;3.22;;;;;;;16.07;100.00;92796.00;2578545;23;20015;-82
2023/07/12 03:34:34;;;;;;;4.95;3.65;;;;;;;16.05;100.00;92797.66;2576317;23;20015;-81
2023/07/12 03:36:02;;;;;;;8.50;3.53;;;;;;;16.11;100.00;92803.91;2579473;23;20012;-80
2023/07/12 03:37:29;;;;;;;6.18;3.47;;;;;;;16.15;100.00;92809.13;2578022;23;20042;-81
2023/07/12 03:38:58;;;;;;;5.30;3.47;;;;;;;16.16;100.00;92800.59;2575504;23;20007;-83
2023/07/12 03:40:24;;;;;;;6.03;3.30;;;;;;;16.06;100.00;92794.50;2575257;23;20007;-80
2023/07/12 03:41:51;;;;;;;5.60;3.65;;;;;;;16.22;100.00;92809.53;2577906;23;20007;-85
2023/07/12 03:43:20;;;;;;;7.35;3.22;;;;;;;16.14;100.00;92815.72;2575192;23;20093;-83
2023/07/12 03:44:47;;;;;;;6.75;3.50;;;;;;;16.14;100.00;92832.66;2574707;23;20011;-79
2023/07/12 03:46:15;;;;;;;6.15;3.30;;;;;;;16.16;100.00;92851.09;2575128;23;20047;-80
2023/07/12 03:47:42;;;;;;;6.55;3.33;;;;;;;16.19;100.00;92856.28;2585438;23;20011;-79
2023/07/12 03:49:17;;;;;;;6.97;3.70;;;;;;;16.15;100.00;92852.28;2582937;22;20358;-84
2023/07/12 03:50:49;;;;;;;5.38;3.17;;;;;;;16.32;100.00;92850.69;2578589;23;20011;-86
2023/07/12 03:52:15;;;;;;;6.47;3.30;;;;;;;16.23;100.00;92854.16;2579441;23;20381;-85
2023/07/12 03:53:42;;;;;;;10.07;3.13;;;;;;;16.28;100.00;92844.72;2578720;23;20043;-84
2023/07/12 03:55:02;;;;;;;4.55;3.50;;;;;;;16.20;100.00;92849.72;2579084;23;20401;-79
2023/07/12 03:56:35;;;;;;;8.82;3.50;;;;;;;16.21;100.00;92845.06;2578428;23;20004;-81
2023/07/12 03:58:01;;;;;;;4.00;3.08;;;;;;;16.21;100.00;92845.81;2576639;23;20336;-85
2023/07/12 03:59:22;;;;;;;4.72;3.28;;;;;;;16.19;100.00;92853.59;2579179;23;20054;-83
2023/07/12 04:00:47;;;;;;;7.35;3.42;;;;;;;16.14;100.00;92862.31;2575285;23;20030;-79
2023/07/12 04:02:13;;;;;;;8.55;3.60;;;;;;;16.30;100.00;92869.28;2576051;23;20149;-78
2023/07/12 04:03:42;;;;;;;12.65;4.05;;;;;;;16.24;100.00;92866.47;2579386;23;20027;-80
2023/07/12 04:05:10;;;;;;;5.32;3.40;;;;;;;16.32;100.00;92866.88;2578634;23;20015;-79
2023/07/12 04:06:38;;;;;;;7.75;3.97;;;;;;;16.17;100.00;92877.59;2576926;23;20007;-83
2023/07/12 04:08:05;;;;;;;4.32;2.92;;;;;;;16.25;100.00;92859.13;2578255;23;20011;-83
2023/07/12 04:09:31;;;;;;;4.95;3.83;;;;;;;16.19;100.00;92858.97;2582986;22;20035;-84
2023/07/12 04:10:58;;;;;;;7.55;3.50;;;;;;;16.23;100.00;92858.81;2584055;23;20276;-78
2023/07/12 04:12:25;;;;;;;3.72;3.30;;;;;;;16.29;100.00;92851.63;2582848;23;20015;-80
2023/07/12 04:13:53;;;;;;;4.55;3.50;;;;;;;16.33;100.00;92866.44;2579754;23;20031;-83
2023/07/12 04:15:21;;;;;;;7.22;3.47;;;;;;;16.48;100.00;92866.47;2576133;23;20098;-79
2023/07/12 04:16:47;;;;;;;8.43;4.05;;;;;;;16.35;100.00;92865.97;2579064;23;20026;-80
2023/07/12 04:18:15;;;;;;;7.78;3.63;;;;;;;16.57;100.00;92860.28;2578901;23;20014;-83
2023/07/12 04:19:43;;;;;;;6.38;3.70;;;;;;;16.56;100.00;92859.53;2575668;23;20050;-83
2023/07/12 04:21:11;;;;;;;6.57;3.45;;;;;;;16.54;100.00;92861.19;2575787;23;20526;-81
2023/07/12 04:22:39;;;;;;;6.82;3.70;;;;;;;16.74;100.00;92855.25;2575365;23;20466;-78
2023/07/12 04:24:06;;;;;;;4.68;3.90;;;;;;;16.62;100.00;92856.94;2575693;23;20024;-84
2023/07/12 04:25:30;;;;;;;8.05;3.88;;;;;;;16.61;100.00;92871.66;2574691;23;20336;-80
2023/07/12 04:26:59;;;;;;;8.15;3.75;;;;;;;16.59;100.00;92868.66;2574446;23;20011;-82
2023/07/12 04:28:27;;;;;;;6.15;4.00;;;;;;;16.53;100.00;92857.00;2578118;23;20011;-80
2023/07/12 04:29:53;;;;;;;6.30;4.30;;;;;;;16.58;100.00;92872.56;2565654;23;20099;-86
2023/07/12 04:31:21;;;;;;;9.35;4.68;;;;;;;16.50;100.00;92882.19;2575817;23;20012;-84
2023/07/12 04:32:48;;;;;;;6.93;4.63;;;;;;;16.57;100.00;92884.56;2579047;23;20008;-81
2023/07/12 04:34:15;;;;;;;9.73;5.05;;;;;;;16.52;100.00;92891.34;2565587;23;20800;-79
2023/07/12 04:35:45;;;;;;;7.53;5.13;;;;;;;16.54;100.00;92882.78;2575070;23;20008;-79
2023/07/12 04:37:13;;;;;;;6.97;5.07;;;;;;;16.52;100.00;92894.03;2565452;23;20020;-78
2023/07/12 04:38:42;;;;;;;13.82;5.60;;;;;;;16.54;100.00;92891.59;2562358;23;20091;-81
2023/07/12 04:40:11;;;;;;;9.82;4.72;;;;;;;16.55;100.00;92884.25;2563482;23;20008;-82
2023/07/12 04:41:38;;;;;;;6.78;5.13;;;;;;;16.59;100.00;92891.00;2563984;23;20340;-79
2023/07/12 04:43:03;;;;;;;8.25;5.43;;;;;;;16.61;100.00;92904.03;2562857;23;20008;-83
2023/07/12 04:44:31;;;;;;;6.97;5.05;;;;;;;16.62;100.00;92900.84;2561902;23;20015;-79
2023/07/12 04:46:00;;;;;;;8.48;4.93;;;;;;;16.61;100.00;92902.06;2562403;23;20066;-83
2023/07/12 04:47:26;;;;;;;10.57;5.20;;;;;;;16.75;100.00;92897.22;2576559;23;20315;-81
2023/07/12 04:48:53;;;;;;;10.18;5.38;;;;;;;16.74;100.00;92904.56;2566184;23;20503;-79
2023/07/12 04:50:17;;;;;;;13.25;5.63;;;;;;;16.75;100.00;92891.81;2562523;23;20005;-81
2023/07/12 04:51:44;;;;;;;8.35;5.32;;;;;;;16.78;100.00;92899.00;2557352;23;20108;-83
2023/07/12 04:53:12;;;;;;;8.88;5.40;;;;;;;16.94;100.00;92901.28;2562444;23;20001;-81
2023/07/12 04:54:45;;;;;;;9.90;5.63;;;;;;;16.96;100.00;92906.22;2575345;23;20038;-84
2023/07/12 04:56:12;;;;;;;10.45;5.50;;;;;;;16.93;100.00;92913.28;2565454;23;20067;-83
2023/07/12 04:57:39;;;;;;;8.85;5.97;;;;;;;16.92;100.00;92911.78;2562075;23;20613;-84
2023/07/12 04:59:08;;;;;;;10.07;5.72;;;;;;;17.00;100.00;92907.53;2562272;23;20127;-83
2023/07/12 05:00:36;;;;;;;13.68;6.03;;;;;;;17.04;100.00;92905.41;2562689;23;20019;-79
2023/07/12 05:02:04;;;;;;;6.63;5.40;;;;;;;17.02;100.00;92902.41;2562489;23;20012;-79
2023/07/12 05:03:32;;;;;;;8.20;5.57;;;;;;;17.06;100.00;92905.69;2563257;23;20732;-85
2023/07/12 05:04:58;;;;;;;7.80;4.63;;;;;;;17.37;100.00;92912.63;2550390;23;20028;-78
2023/07/12 05:06:26;;;;;;;8.90;5.10;;;;;;;17.45;100.00;92908.38;2557839;23;20001;-79
2023/07/12 05:07:55;;;;;;;8.13;5.20;;;;;;;17.47;100.00;92899.78;2562628;23;20075;-82
2023/07/12 05:09:21;;;;;;;7.35;5.55;;;;;;;17.44;100.00;92908.84;2576324;23;20016;-79
2023/07/12 05:12:46;;;;;;;9.93;5.38;;;;;;;17.37;100.00;92907.22;2563327;23;20000;-81
2023/07/12 05:13:47;;;;;;;6.00;5.32;;;;;;;17.48;100.00;92904.75;2538773;23;20017;-81
2023/07/12 05:14:48;;;;;;;7.70;5.20;;;;;;;17.53;100.00;92898.69;2539140;23;20036;-81
2023/07/12 05:15:51;;;;;;;10.93;5.22;;;;;;;17.47;100.00;92892.44;2564310;23;20320;-82
2023/07/12 05:16:52;;;;;;;8.73;5.25;;;;;;;17.41;100.00;92909.75;2548427;23;20043;-82
2023/07/12 05:17:53;;;;;;;8.45;5.22;;;;;;;17.41;100.00;92904.34;2539418;23;20014;-83
2023/07/12 05:18:54;;;;;;;6.53;5.93;;;;;;;17.44;100.00;92906.88;2553594;23;20028;-82
2023/07/12 05:19:55;;;;;;;7.75;5.80;;;;;;;17.45;100.00;92908.38;2556087;23;20009;-79
2023/07/12 05:20:57;;;;;;;9.13;6.05;;;;;;;17.47;100.00;92905.19;2551379;23;20005;-83
2023/07/12 05:21:58;;;;;;;9.15;6.03;;;;;;;17.52;100.00;92910.72;2551140;23;20028;-81
2023/07/12 05:22:59;;;;;;;8.38;5.85;;;;;;;17.57;100.00;92901.94;2551774;23;20000;-83
2023/07/12 05:24:00;;;;;;;8.40;5.25;;;;;;;17.43;100.00;92901.91;2551953;23;20398;-81
2023/07/12 05:25:02;;;;;;;9.25;5.38;;;;;;;17.44;100.00;92906.13;2539119;23;20338;-82
2023/07/12 05:26:03;;;;;;;11.00;5.80;;;;;;;17.49;100.00;92911.63;2539723;23;20005;-80
2023/07/12 05:27:04;;;;;;;8.60;6.03;;;;;;;17.69;100.00;92908.31;2528501;23;20005;-82
2023/07/12 05:28:06;;;;;;;9.52;5.47;;;;;;;17.61;100.00;92905.22;2528365;23;20444;-85
2023/07/12 05:29:12;;;;;;;7.55;4.90;;;;;;;17.68;100.00;92908.75;2530119;23;20010;-79
2023/07/12 05:30:44;;;;;;;10.40;5.40;;;;;;;17.74;100.00;92902.25;2553589;23;20192;-85
2023/07/12 05:33:52;;;;;;;5.72;5.10;;;;;;;17.86;100.00;92903.91;2578155;23;20004;-81
2023/07/12 05:34:53;;;;;;;7.82;5.28;;;;;;;17.86;100.00;92909.31;2554314;23;20069;-82
2023/07/12 05:39:48;;;;;;;7.22;5.13;;;;;;;17.95;100.00;92905.03;2575760;23;19997;-83
2023/07/12 05:40:50;;;;;;;8.55;5.78;;;;;;;18.00;100.00;92907.06;2560955;23;20000;-85
2023/07/12 05:41:51;;;;;;;8.88;5.47;;;;;;;18.17;100.00;92901.94;2561407;23;20016;-85
2023/07/12 05:42:53;;;;;;;8.23;5.07;;;;;;;18.16;100.00;92905.84;2548353;23;20009;-83
2023/07/12 05:43:54;;;;;;;10.55;5.72;;;;;;;18.14;100.00;92905.59;2548037;23;20009;-85
2023/07/12 05:44:55;;;;;;;12.77;6.20;;;;;;;18.20;100.00;92888.22;2547665;23;20057;-85
2023/07/12 05:45:59;;;;;;;13.38;5.43;;;;;;;18.19;100.00;92894.09;2547818;23;20036;-85
2023/07/12 05:47:00;;;;;;;12.50;6.07;;;;;;;18.25;100.00;92890.25;2532233;23;20400;-82
2023/07/12 05:48:01;;;;;;;7.82;5.72;;;;;;;18.22;100.00;92895.84;2540386;23;20428;-83
2023/07/12 05:49:03;;;;;;;7.05;5.40;;;;;;;18.27;100.00;92887.09;2540439;23;20440;-83
2023/07/12 05:50:06;;;;;;;9.85;5.75;;;;;;;18.26;100.00;92894.47;2543114;23;19997;-81
2023/07/12 05:51:08;;;;;;;12.15;5.78;;;;;;;18.29;100.00;92892.75;2555091;23;20051;-82
2023/07/12 05:52:08;;;;;;;6.53;5.38;;;;;;;18.32;100.00;92889.88;2540742;23;20001;-82
2023/07/12 05:55:08;;;;;;;7.70;5.53;;;;;;;18.69;100.00;92897.50;2577375;23;19996;-81
2023/07/12 05:56:09;;;;;;;6.22;5.43;;;;;;;18.70;100.00;92895.56;2577810;23;20082;-81
2023/07/12 05:57:11;;;;;;;7.50;4.93;;;;;;;18.68;100.00;92890.59;2563942;23;20462;-82
2023/07/12 05:58:12;;;;;;;8.75;5.32;;;;;;;18.65;100.00;92888.06;2553316;23;20026;-83
2023/07/12 05:59:14;;;;;;;10.48;6.13;;;;;;;18.53;100.00;92889.91;2539724;23;20012;-84
2023/07/12 06:00:17;;;;;;;7.50;5.00;;;;;;;18.55;100.00;92887.47;2540217;23;20427;-81
2023/07/12 06:01:19;;;;;;;10.18;5.70;;;;;;;18.51;100.00;92884.94;2540588;23;20600;-81
2023/07/12 06:02:21;;;;;;;6.63;5.35;;;;;;;18.57;100.00;92880.38;2529131;23;20042;-84
2023/07/12 06:03:21;;;;;;;11.73;5.95;;;;;;;18.57;100.00;92883.06;2540986;23;20313;-80
2023/07/12 06:04:22;;;;;;;8.38;6.07;;;;;;;18.46;100.00;92885.63;2553050;23;20011;-83
2023/07/12 06:05:23;;;;;;;8.93;5.95;;;;;;;18.46;100.00;92887.59;2540442;23;19998;-82
2023/07/12 06:06:26;;;;;;;13.55;6.00;;;;;;;18.44;100.00;92881.88;2529051;23;20013;-79
2023/07/12 06:07:27;;;;;;;8.52;5.82;;;;;;;18.47;100.00;92891.78;2530818;23;20715;-85
2023/07/12 06:08:28;;;;;;;7.28;5.68;;;;;;;18.55;100.00;92876.63;2556390;23;20016;-86
2023/07/12 06:09:31;;;;;;;9.85;5.95;;;;;;;18.60;100.00;92875.97;2531905;23;20023;-83
2023/07/12 06:10:32;;;;;;;8.02;5.78;;;;;;;18.69;100.00;92880.50;2542681;23;20845;-81
2023/07/12 06:11:33;;;;;;;8.13;5.90;;;;;;;18.65;100.00;92886.09;2530275;23;20002;-82
2023/07/12 06:12:34;;;;;;;11.90;5.70;;;;;;;18.77;100.00;92893.19;2542647;23;20029;-84
2023/07/12 06:13:35;;;;;;;10.32;5.40;;;;;;;18.78;100.00;92889.25;2542877;23;20584;-83
2023/07/12 06:14:37;;;;;;;7.03;5.53;;;;;;;18.82;100.00;92886.34;2542528;23;20513;-83
2023/07/12 06:15:38;;;;;;;8.40;5.63;;;;;;;18.85;100.00;92898.94;2542131;23;20010;-79
2023/07/12 06:16:39;;;;;;;8.52;6.03;;;;;;;18.77;100.00;92884.31;2539664;23;20125;-81
2023/07/12 06:17:40;;;;;;;8.40;6.38;;;;;;;18.81;100.00;92888.31;2540874;23;20010;-83
2023/07/12 06:18:41;;;;;;;8.05;6.00;;;;;;;18.83;100.00;92895.97;2552978;23;20035;-83
2023/07/12 06:19:42;;;;;;;10.02;6.57;;;;;;;18.87;100.00;92893.78;2539120;23;20290;-81
2023/07/12 06:20:43;;;;;;;11.18;5.80;;;;;;;18.88;100.00;92889.88;2554986;23;20012;-79
2023/07/12 06:21:44;;;;;;;7.00;5.68;;;;;;;19.09;100.00;92891.34;2550232;23;20039;-82
2023/07/12 06:22:57;;;;;;;8.00;5.40;;;;;;;19.18;100.00;92887.00;2543059;23;20010;-78
2023/07/12 06:23:59;;;;;;;6.75;5.55;;;;;;;19.18;100.00;92889.72;2552340;23;20019;-83
2023/07/12 06:27:09;;;;;;;9.65;5.63;;;;;;;19.13;100.00;92883.75;2565804;23;20099;-84
2023/07/12 06:29:04;;;;;;;9.13;6.00;;;;;;;19.18;100.00;92885.03;2546118;23;20008;-80
2023/07/12 06:30:06;;;;;;;8.93;5.75;;;;;;;19.16;100.00;92875.91;2551332;23;20020;-83
2023/07/12 06:35:05;;;;;;;6.72;5.20;;;;;;;19.34;100.00;92875.59;2579905;23;20313;-84
2023/07/12 06:36:57;;;;;;;11.32;5.50;;;;;;;19.35;100.00;92877.81;2564999;23;20431;-83
2023/07/12 06:37:58;;;;;;;7.95;5.63;;;;;;;19.29;100.00;92877.03;2573941;23;20083;-79
2023/07/12 06:38:59;;;;;;;7.97;6.07;;;;;;;19.26;100.00;92874.53;2563542;23;20065;-83
2023/07/12 06:40:00;;;;;;;8.82;6.00;;;;;;;19.40;100.00;92872.94;2553204;23;20001;-82
2023/07/12 06:41:01;;;;;;;8.50;5.85;;;;;;;19.40;100.00;92878.38;2552660;23;20041;-81